• Join FlightAware (Why Join?)
  • Login
  • US Flag 
12:15AM EST


 

Airport Tracker/Info


-or-


 

Live Flight TrackerFlight Track Log ✈ UPS214 ✈ 18-Jul-2013 ✈ EDDK / CGN - KSDF

Flight Track Log - Related Links

Times and Time Zones

All times are in EDT time to prevent confusion due to time zone crossing. See the UPS214 flight status page for this flight to view local times or setup timezone preferences in your user account.

Time Position Orientation Groundspeed Altitude Reporting Facility
EDT Latitude Longitude Course Direction KTS MPH feet Rate Location/Type
05:05PM 55.5401 -14.7940 298° West  Level Estimated
05:05PM 54.0270 -15.3850 298° West 477 549 32,000  Level FlightAware
05:05PM 54.0380 -15.5010 279° West 477 549 32,000  Level FlightAware
05:06PM 54.0560 -15.6940 279° West 477 549 32,000  Level FlightAware
05:07PM 54.0660 -15.8010 279° West 477 549 32,000  Level FlightAware
05:08PM 54.0840 -15.9970 279° West 477 549 32,000  Level FlightAware
05:09PM 54.0980 -16.1490 279° West 477 549 32,000  Level FlightAware
05:09PM 54.1090 -16.2620 279° West 477 549 32,000 -60 Level FlightAware
05:12PM 54.1570 -16.7035 281° West  Level Estimated
05:13PM 54.1797 -16.9175 280° West  Level Estimated
05:14PM 54.2019 -17.1317 280° West  Level Estimated
05:15PM 54.2238 -17.3461 280° West  Level Estimated
05:16PM 54.2453 -17.5608 280° West  Level Estimated
05:17PM 54.2665 -17.7757 280° West  Level Estimated
05:18PM 54.2872 -17.9908 279° West  Level Estimated
05:19PM 54.3076 -18.2062 279° West  Level Estimated
05:20PM 54.3275 -18.4217 279° West  Level Estimated
05:21PM 54.3471 -18.6374 279° West  Level Estimated
05:22PM 54.3663 -18.8534 279° West  Level Estimated
05:23PM 54.3852 -19.0695 279° West  Level Estimated
05:24PM 54.4036 -19.2859 278° West  Level Estimated
05:25PM 54.4216 -19.5024 278° West  Level Estimated
05:25PM 55.0000 -20.0000 294° West 496 571 31,900  Level ETMS Enhanced Traffic Management System
05:26PM 54.4393 -19.7192 278° West  Level Estimated
05:27PM 54.4566 -19.9361 278° West  Level Estimated
05:28PM 54.4735 -20.1532 278° West  Level Estimated
05:29PM 54.4900 -20.3704 278° West  Level Estimated
05:30PM 54.5061 -20.5879 277° West  Level Estimated
05:31PM 55.3796 -21.5556 293° West 496 571 31,900  Level FlightAware Transoceanic
05:32PM 55.4322 -21.7802 292° West 496 571 31,900  Level FlightAware Transoceanic
05:33PM 55.4844 -22.0054 292° West 496 571 31,900  Level FlightAware Transoceanic
05:34PM 55.5362 -22.2313 292° West 496 571 31,900  Level FlightAware Transoceanic
05:35PM 55.5875 -22.4577 292° West 496 571 31,900  Level FlightAware Transoceanic
05:36PM 55.6384 -22.6847 292° West 496 571 31,900  Level FlightAware Transoceanic
05:37PM 55.6890 -22.9123 291° West 496 571 31,900  Level FlightAware Transoceanic
05:38PM 55.7391 -23.1405 291° West 496 571 31,900  Level FlightAware Transoceanic
05:39PM 55.7887 -23.3692 291° West 496 571 31,900  Level FlightAware Transoceanic
05:40PM 55.8380 -23.5986 291° West 496 571 31,900  Level FlightAware Transoceanic
05:41PM 55.8868 -23.8285 291° West 496 571 31,900  Level FlightAware Transoceanic
05:42PM 55.9352 -24.0590 290° West 496 571 31,900  Level FlightAware Transoceanic
05:43PM 55.9831 -24.2901 290° West 496 571 31,900  Level FlightAware Transoceanic
05:44PM 56.0307 -24.5217 290° West 496 571 31,900  Level FlightAware Transoceanic
05:45PM 56.0778 -24.7540 290° West 496 571 31,900  Level FlightAware Transoceanic
05:46PM 56.1244 -24.9867 290° West 496 571 31,900  Level FlightAware Transoceanic
05:47PM 56.1706 -25.2201 289° West 496 571 31,900  Level FlightAware Transoceanic
05:48PM 56.2164 -25.4540 289° West 496 571 31,900  Level FlightAware Transoceanic
05:49PM 56.2617 -25.6885 289° West 496 571 31,900  Level FlightAware Transoceanic
05:50PM 56.3066 -25.9235 289° West 496 571 31,900  Level FlightAware Transoceanic
05:51PM 56.3510 -26.1590 289° West 496 571 31,900  Level FlightAware Transoceanic
05:52PM 56.3950 -26.3952 288° West 496 571 31,900  Level FlightAware Transoceanic
05:53PM 56.4386 -26.6318 288° West 496 571 31,900  Level FlightAware Transoceanic
05:54PM 56.4817 -26.8690 288° West 496 571 31,900  Level FlightAware Transoceanic
05:55PM 56.5243 -27.1068 288° West 496 571 31,900  Level FlightAware Transoceanic
05:56PM 56.5665 -27.3450 288° West 496 571 31,900  Level FlightAware Transoceanic
05:57PM 56.6082 -27.5838 288° West 496 571 31,900  Level FlightAware Transoceanic
05:58PM 56.6495 -27.8231 287° West 496 571 31,900  Level FlightAware Transoceanic
05:59PM 56.6903 -28.0630 287° West 496 571 31,900  Level FlightAware Transoceanic
06:00PM 56.7306 -28.3033 287° West 496 571 31,900  Level FlightAware Transoceanic
06:01PM 56.7705 -28.5442 287° West 496 571 31,900  Level FlightAware Transoceanic
06:02PM 56.8099 -28.7856 287° West 496 571 31,900  Level FlightAware Transoceanic
06:03PM 56.8489 -29.0275 286° West 496 571 31,900  Level FlightAware Transoceanic
06:04PM 56.8874 -29.2699 286° West 496 571 31,900  Level FlightAware Transoceanic
06:05PM 56.9254 -29.5128 286° West 496 571 31,900  Level FlightAware Transoceanic
06:06PM 56.9629 -29.7561 286° West 496 571 31,900  Level FlightAware Transoceanic
06:07PM 56.9972 -29.9811 286° West  Level FlightAware Approximate
06:08PM 57.0310 -30.2066 286° West  Level FlightAware Approximate
06:09PM 57.0265 -30.1885 285° West  Level FlightAware Approximate
06:10PM 57.0579 -30.4153 284° West  Level FlightAware Approximate
06:11PM 57.0888 -30.6424 284° West  Level FlightAware Approximate
06:12PM 57.1194 -30.8700 284° West  Level FlightAware Approximate
06:13PM 57.1496 -31.0979 284° West  Level FlightAware Approximate
06:14PM 57.1793 -31.3261 284° West  Level FlightAware Approximate
06:15PM 57.2087 -31.5548 283° West  Level FlightAware Approximate
06:16PM 57.2376 -31.7838 283° West  Level FlightAware Approximate
06:17PM 57.2661 -32.0131 283° West  Level FlightAware Approximate
06:18PM 57.2942 -32.2428 283° West  Level FlightAware Approximate
06:19PM 57.3218 -32.4729 283° West  Level FlightAware Approximate
06:20PM 57.3491 -32.7033 282° West  Level FlightAware Approximate
06:21PM 57.3759 -32.9340 282° West  Level FlightAware Approximate
06:22PM 57.4023 -33.1651 282° West  Level FlightAware Approximate
06:23PM 57.4283 -33.3965 282° West  Level FlightAware Approximate
06:24PM 57.4538 -33.6282 282° West  Level FlightAware Approximate
06:25PM 57.4790 -33.8603 281° West  Level FlightAware Approximate
06:26PM 57.5037 -34.0927 281° West  Level FlightAware Approximate
06:27PM 57.5283 -34.3252 281° West  Level FlightAware Approximate
06:28PM 57.5529 -34.5579 281° West  Level FlightAware Approximate
06:29PM 57.5771 -34.7909 281° West  Level FlightAware Approximate
06:30PM 57.6009 -35.0243 281° West  Level FlightAware Approximate
06:31PM 57.6242 -35.2579 281° West  Level FlightAware Approximate
06:32PM 57.6471 -35.4918 280° West  Level FlightAware Approximate
06:33PM 57.6696 -35.7261 280° West  Level FlightAware Approximate
06:34PM 57.6916 -35.9606 280° West  Level FlightAware Approximate
06:35PM 57.7132 -36.1954 280° West  Level FlightAware Approximate
06:36PM 57.7344 -36.4304 280° West  Level FlightAware Approximate
06:37PM 57.7551 -36.6658 279° West  Level FlightAware Approximate
06:38PM 57.7754 -36.9014 279° West  Level FlightAware Approximate
06:39PM 57.7953 -37.1372 279° West  Level FlightAware Approximate
06:40PM 57.8147 -37.3734 279° West  Level FlightAware Approximate
06:41PM 57.8337 -37.6097 279° West  Level FlightAware Approximate
06:42PM 57.8522 -37.8464 278° West  Level FlightAware Approximate
06:43PM 57.8703 -38.0832 278° West  Level FlightAware Approximate
06:44PM 57.8880 -38.3204 278° West  Level FlightAware Approximate
06:45PM 57.9052 -38.5577 278° West  Level FlightAware Approximate
06:46PM 57.9220 -38.7952 278° West  Level FlightAware Approximate
06:47PM 57.9383 -39.0330 277° West  Level FlightAware Approximate
06:48PM 57.9542 -39.2710 277° West  Level FlightAware Approximate
06:49PM 57.9696 -39.5092 277° West  Level FlightAware Approximate
06:50PM 57.9846 -39.7476 277° West  Level FlightAware Approximate
06:51PM 57.9992 -39.9862 277° West  Level FlightAware Approximate
06:52PM 57.9866 -40.2249 264° West  Level FlightAware Approximate
06:53PM 57.9720 -40.4634 264° West  Level FlightAware Approximate
06:54PM 57.9570 -40.7018 263° West  Level FlightAware Approximate
06:55PM 57.9415 -40.9398 263° West  Level FlightAware Approximate
06:56PM 57.9255 -41.1777 263° West  Level FlightAware Approximate
06:57PM 57.9091 -41.4154 263° West  Level FlightAware Approximate
06:58PM 57.8923 -41.6529 263° West  Level FlightAware Approximate
06:59PM 57.8750 -41.8901 262° West  Level FlightAware Approximate
07:00PM 57.8573 -42.1271 262° West  Level FlightAware Approximate
07:01PM 57.8392 -42.3639 262° West  Level FlightAware Approximate
07:02PM 57.8206 -42.6004 262° West  Level FlightAware Approximate
07:03PM 57.8016 -42.8367 262° West  Level FlightAware Approximate
07:04PM 57.7821 -43.0727 261° West  Level FlightAware Approximate
07:05PM 57.7622 -43.3085 261° West  Level FlightAware Approximate
07:06PM 57.7418 -43.5440 261° West  Level FlightAware Approximate
07:07PM 57.7210 -43.7793 261° West  Level FlightAware Approximate
07:08PM 57.6998 -44.0142 261° West  Level FlightAware Approximate
07:09PM 57.6782 -44.2489 260° West  Level FlightAware Approximate
07:10PM 57.6561 -44.4833 260° West  Level FlightAware Approximate
07:11PM 57.6335 -44.7174 260° West  Level FlightAware Approximate
07:12PM 57.6106 -44.9513 260° West  Level FlightAware Approximate
07:13PM 57.5872 -45.1848 260° West  Level FlightAware Approximate
07:14PM 57.5634 -45.4180 259° West  Level FlightAware Approximate
07:15PM 57.5391 -45.6509 259° West  Level FlightAware Approximate
07:16PM 57.5145 -45.8835 259° West  Level FlightAware Approximate
07:17PM 57.4894 -46.1158 259° West  Level FlightAware Approximate
07:18PM 57.4638 -46.3478 259° West  Level FlightAware Approximate
07:19PM 57.4379 -46.5794 258° West  Level FlightAware Approximate
07:20PM 57.4115 -46.8107 258° West  Level FlightAware Approximate
07:21PM 57.3847 -47.0417 258° West  Level FlightAware Approximate
07:22PM 57.3575 -47.2724 258° West  Level FlightAware Approximate
07:23PM 57.3298 -47.5026 258° West  Level FlightAware Approximate
07:24PM 57.3018 -47.7326 257° West  Level FlightAware Approximate
07:25PM 57.2733 -47.9622 257° West  Level FlightAware Approximate
07:26PM 57.2444 -48.1914 257° West  Level FlightAware Approximate
07:27PM 57.2151 -48.4203 257° West  Level FlightAware Approximate
07:28PM 57.1853 -48.6488 257° West  Level FlightAware Approximate
07:29PM 57.1552 -48.8769 256° West  Level FlightAware Approximate
07:30PM 57.1246 -49.1047 256° West  Level FlightAware Approximate
07:31PM 57.0937 -49.3320 256° West  Level FlightAware Approximate
07:32PM 57.0623 -49.5590 256° West  Level FlightAware Approximate
07:33PM 57.0305 -49.7856 256° West  Level FlightAware Approximate
07:34PM 56.9979 -50.0117 252° West  Level FlightAware Approximate
07:35PM 56.9584 -50.2337 252° West  Level FlightAware Approximate
07:36PM 56.9184 -50.4552 252° West  Level FlightAware Approximate
07:36PM 57.0167 -50.0333 251° West 470 541 34,000  Level Gander Center
07:37PM 56.8780 -50.6763 252° West  Level FlightAware Approximate
07:37PM 56.9667 -50.2667 249° West 470 541 34,000  Level Gander Center
07:38PM 56.8372 -50.8969 251° West  Level FlightAware Approximate
07:39PM 56.7961 -51.1170 251° West  Level FlightAware Approximate
07:39PM 56.9052 -50.5939 251° West  Level FlightAware Approximate
07:40PM 56.7546 -51.3366 251° West  Level FlightAware Approximate
07:41PM 56.7127 -51.5557 251° West  Level FlightAware Approximate
07:46PM 56.6036 -52.1235 251° West  Level FlightAware Approximate
07:47PM 56.5590 -52.3400 250° West  Level FlightAware Approximate
07:48PM 56.5145 -52.5565 250° West  Level FlightAware Approximate
07:49PM 56.4699 -52.7725 250° West  Level FlightAware Approximate
07:49PM 56.4667 -52.9667 249° West 470 541 34,000  Level Gander Center
07:50PM 56.4249 -52.9879 249° West  Level FlightAware Approximate
07:50PM 56.4167 -53.1833 247° West 470 541 34,000  Level Gander Center
07:51PM 56.3795 -53.2029 249° West  Level FlightAware Approximate
07:52PM 56.3338 -53.4173 249° West  Level FlightAware Approximate
07:52PM 56.3333 -53.5667 249° West 480 552 34,100  Level Gander Center
07:53PM 56.2877 -53.6312 249° West  Level FlightAware Approximate
07:53PM 56.2833 -53.7833 248° West 480 552 34,100  Level Gander Center
07:54PM 56.2412 -53.8446 249° West  Level FlightAware Approximate
07:54PM 56.2333 -54.0333 250° West 480 552 34,000  Level Gander Center
07:55PM 56.2000 -54.2500 255° West 480 552 34,000  Level Gander Center
07:56PM 56.1333 -54.4667 241° Southwest 480 552 34,000  Level Gander Center
07:58PM 56.0402 -54.8631 247° West  Level FlightAware Approximate
08:01PM 55.8500 -55.7333 246° West 480 552 34,000  Level Moncton Center
08:02PM 55.8167 -55.8667 246° West 480 552 34,000  Level Gander Center
08:03PM 55.7667 -56.0500 244° Southwest 480 552 34,000  Level Gander Center
08:04PM 55.6667 -56.2500 228° Southwest 480 552 34,000  Level Gander Center
08:05PM 55.6798 -56.3325 247° West  Level FlightAware Approximate
08:05PM 55.5833 -56.4333 231° Southwest 480 552 34,000  Level Gander Center
08:06PM 55.6269 -56.5401 246° West  Level FlightAware Approximate
08:06PM 55.5000 -56.6167 231° Southwest 480 552 34,000  Level Gander Center
08:07PM 55.5736 -56.7472 246° West  Level FlightAware Approximate
08:07PM 55.4167 -56.7833 229° Southwest 480 552 34,000  Level Gander Center
08:08PM 55.3500 -57.0000 242° Southwest 480 552 34,000  Level Gander Center
08:09PM 55.2667 -57.1500 226° Southwest 470 541 34,000  Level Gander Center
08:10PM 55.1667 -57.3667 231° Southwest 470 541 34,000  Level Gander Center
08:11PM 55.1000 -57.5167 232° Southwest 470 541 34,000  Level Gander Center
08:12PM 55.0167 -57.7000 232° Southwest 470 541 34,000 -60 Level Gander Center
08:13PM 54.9333 -57.8833 232° Southwest 470 541 33,900  Descending Gander Center
08:14PM 54.8500 -58.0333 226° Southwest 470 541 34,000  Climbing Gander Center
08:15PM 54.7667 -58.2333 234° Southwest 470 541 34,000  Level Gander Center
08:16PM 54.6833 -58.3833 226° Southwest 460 529 34,000 -60 Level Gander Center
08:17PM 54.6000 -58.5667 232° Southwest 460 529 33,900  Descending Gander Center
08:18PM 54.5167 -58.7500 232° Southwest 460 529 34,000 60 Climbing Gander Center
08:19PM 54.4500 -58.9000 233° Southwest 460 529 34,100  Climbing Gander Center
08:20PM 54.3500 -59.0667 224° Southwest 470 541 34,000 -60 Descending Gander Center
08:21PM 54.2667 -59.2500 232° Southwest 470 541 34,000  Level Gander Center
08:22PM 54.1833 -59.4333 232° Southwest 470 541 34,000  Level Gander Center
08:23PM 54.1000 -59.6000 230° Southwest 470 541 34,000  Level Gander Center
08:24PM 54.0000 -59.7667 224° Southwest 470 541 34,000  Level Gander Center
08:25PM 53.9167 -59.9167 227° Southwest 470 541 34,000  Level Gander Center
08:26PM 53.8333 -60.1000 232° Southwest 480 552 34,000  Level Gander Center
08:27PM 53.7667 -60.2667 236° Southwest 470 541 34,000  Level Gander Center
08:28PM 53.6667 -60.4333 225° Southwest 470 541 34,000  Level Gander Center
08:29PM 53.5833 -60.6000 230° Southwest 470 541 34,000  Level Gander Center
08:30PM 53.5000 -60.7833 233° Southwest 460 529 34,000 -60 Level Gander Center
08:31PM 53.4167 -60.9167 224° Southwest 460 529 33,900  Descending Gander Center
08:32PM 53.3333 -61.0833 230° Southwest 460 529 34,000  Climbing Gander Center
08:33PM 53.2500 -61.2500 230° Southwest 460 529 34,000  Level Gander Center
08:34PM 53.1667 -61.4000 227° Southwest 460 529 34,000  Level Gander Center
08:35PM 53.0667 -61.5667 225° Southwest 470 541 34,000  Level Gander Center
08:36PM 52.9833 -61.7333 230° Southwest 470 541 34,000  Level Gander Center
08:37PM 52.9000 -61.9000 230° Southwest 470 541 34,000  Level Gander Center
08:38PM 52.8167 -62.0500 227° Southwest 470 541 34,000  Level Gander Center
08:39PM 52.7167 -62.2167 225° Southwest 460 529 34,000  Level Gander Center
08:40PM 52.6333 -62.3500 224° Southwest 460 529 34,000  Level Gander Center
08:41PM 52.5333 -62.5167 225° Southwest 460 529 34,000  Level Gander Center
08:42PM 52.4500 -62.6833 231° Southwest 460 529 34,000  Level Gander Center
08:43PM 52.3667 -62.8167 224° Southwest 470 541 34,000  Level Gander Center
08:44PM 52.2833 -62.9833 231° Southwest 470 541 34,000  Level Gander Center
08:45PM 52.2000 -63.1333 228° Southwest 460 529 34,000  Level Gander Center
08:46PM 52.1167 -63.3000 231° Southwest 460 529 34,000  Level Gander Center
08:47PM 52.0167 -63.4333 219° Southwest 450 518 34,000  Level Gander Center
08:48PM 51.9333 -63.5833 228° Southwest 450 518 34,000  Level Gander Center
08:49PM 51.8500 -63.7500 231° Southwest 460 529 34,000  Level Gander Center
08:50PM 51.7667 -63.8833 225° Southwest 460 529 34,000  Level Gander Center
08:51PM 51.6667 -64.0333 223° Southwest 460 529 34,000  Level Gander Center
08:52PM 51.5667 -64.1833 223° Southwest 460 529 34,000  Level Gander Center
08:53PM 51.4833 -64.3167 225° Southwest 460 529 34,000  Level Gander Center
08:54PM 51.4000 -64.4667 228° Southwest 450 518 34,000 -60 Level Gander Center
08:55PM 51.3167 -64.6333 231° Southwest 440 506 33,900  Descending Gander Center
08:56PM 51.2167 -64.7500 216° Southwest 440 506 34,000  Climbing Gander Center
08:57PM 51.1500 -64.8833 231° Southwest 440 506 34,000  Level Gander Center
08:58PM 51.0667 -65.0333 229° Southwest 440 506 34,000  Level Gander Center
08:59PM 50.9667 -65.1667 220° Southwest 440 506 34,000  Level Gander Center
09:00PM 50.8833 -65.3167 229° Southwest 440 506 34,000  Level Gander Center
09:01PM 50.8000 -65.4333 222° Southwest 440 506 34,000  Level Gander Center
09:02PM 50.7167 -65.5833 229° Southwest 440 506 34,000  Level Gander Center
09:03PM 50.6167 -65.7167 220° Southwest 440 506 34,000  Level Gander Center
09:04PM 50.5333 -65.8667 229° Southwest 450 518 34,000  Level Gander Center
09:05PM 50.4500 -65.9333 207° Southwest 440 506 34,000  Level Montreal Center
09:06PM 50.3500 -66.0833 224° Southwest 440 506 34,000 -60 Level Montreal Center
09:07PM 50.2833 -66.2000 228° Southwest 430 495 33,900  Descending Montreal Center
09:08PM 50.1833 -66.3500 224° Southwest 430 495 34,000  Climbing Montreal Center
09:09PM 50.1000 -66.4833 226° Southwest 430 495 34,000  Level Montreal Center
09:10PM 50.0000 -66.6000 217° Southwest 440 506 34,000  Level Montreal Center
09:11PM 49.9167 -66.7500 229° Southwest 440 506 34,000  Level Montreal Center
09:12PM 49.8500 -66.8667 228° Southwest 430 495 34,000 -60 Level Montreal Center
09:13PM 49.7500 -67.0000 221° Southwest 430 495 33,900  Descending Montreal Center
09:14PM 49.6667 -67.1167 222° Southwest 430 495 34,000  Climbing Montreal Center
09:15PM 49.5667 -67.2333 217° Southwest 430 495 34,000  Level Montreal Center
09:16PM 49.4833 -67.3833 229° Southwest 430 495 34,000  Level Montreal Center
09:17PM 49.4000 -67.5000 222° Southwest 430 495 34,000  Level Montreal Center
09:18PM 49.3167 -67.6500 230° Southwest 430 495 34,000  Level Montreal Center
09:19PM 49.2167 -67.7667 217° Southwest 430 495 34,000  Level Montreal Center
09:20PM 49.1500 -67.8833 229° Southwest 430 495 34,000 300 Level Montreal Center
09:21PM 49.0500 -68.0000 217° Southwest 430 495 34,700 900 Climbing Montreal Center
09:22PM 48.9500 -68.1167 217° Southwest 430 495 35,900 600 Climbing Montreal Center
09:23PM 48.8667 -68.2667 230° Southwest 420 483 36,000  Climbing Montreal Center
09:24PM 48.7833 -68.3833 223° Southwest 430 495 36,000  Level Montreal Center
09:25PM 48.7000 -68.5000 223° Southwest 430 495 36,000  Level Montreal Center
09:26PM 48.6000 -68.6333 221° Southwest 430 495 36,000  Level Montreal Center
09:27PM 48.5333 -68.7500 229° Southwest 430 495 36,000  Level Montreal Center
09:32PM 48.0810 -69.4230 229° Southwest 36,000  Level FlightAware
09:33PM 48.0070 -69.5580 231° Southwest 423 487 36,000  Level FlightAware
09:34PM 47.9530 -69.6580 231° Southwest 424 488 36,000  Level FlightAware
09:35PM 47.8890 -69.7760 231° Southwest 426 490 36,000  Level FlightAware
09:36PM 47.8620 -69.8240 230° Southwest 427 491 36,000  Level FlightAware
09:37PM 47.7510 -70.0240 231° Southwest 428 493 36,000  Level FlightAware
09:37PM 47.7110 -70.0950 230° Southwest 428 493 36,000  Level FlightAware
09:38PM 47.6530 -70.2030 231° Southwest 429 494 36,000  Level FlightAware
09:39PM 47.5920 -70.3130 231° Southwest 430 495 36,000  Level FlightAware
09:40PM 47.5160 -70.4480 230° Southwest 429 494 36,000  Level FlightAware
09:40PM 47.4730 -70.5240 230° Southwest 429 494 36,000 -120 Level FlightAware
09:41PM 47.3940 -70.6630 230° Southwest 429 494 35,900  Descending FlightAware
09:42PM 47.3450 -70.7490 230° Southwest 428 493 36,000 60 Climbing FlightAware
09:43PM 47.2840 -70.8560 230° Southwest 428 493 36,000  Level FlightAware
09:43PM 47.2210 -70.9670 230° Southwest 428 493 36,000  Level FlightAware
09:44PM 47.1660 -71.0640 230° Southwest 428 493 36,000  Level FlightAware
09:45PM 47.1120 -71.1560 229° Southwest 429 494 36,000  Level FlightAware
09:46PM 47.0600 -71.2480 230° Southwest 428 493 36,000  Level FlightAware
09:46PM 47.0050 -71.3420 229° Southwest 429 494 36,000  Level FlightAware
09:47PM 46.9560 -71.4260 229° Southwest 431 496 36,000  Level FlightAware
09:48PM 46.9050 -71.5140 230° Southwest 432 497 36,000  Level FlightAware
09:48PM 46.8390 -71.6270 230° Southwest 434 499 36,000  Level FlightAware
09:49PM 46.7830 -71.7220 229° Southwest 436 502 36,000  Level FlightAware
09:50PM 46.7230 -71.8240 229° Southwest 437 503 36,000  Level FlightAware
09:50PM 46.6770 -71.9020 229° Southwest 433 498 36,000  Level FlightAware
09:51PM 46.5980 -72.0350 229° Southwest 440 506 36,000  Level FlightAware
09:52PM 46.5340 -72.1410 229° Southwest 441 507 36,000  Level FlightAware
09:53PM 46.4810 -72.2290 229° Southwest 440 506 36,000  Level FlightAware
09:54PM 46.4220 -72.3270 229° Southwest 438 504 36,000  Level FlightAware
09:54PM 46.3660 -72.4190 229° Southwest 437 503 36,000  Level FlightAware
09:55PM 46.3090 -72.5140 229° Southwest 431 496 36,000  Level FlightAware
09:56PM 46.2550 -72.6040 229° Southwest 430 495 36,000  Level FlightAware
09:56PM 46.1940 -72.7040 229° Southwest 435 501 36,000  Level FlightAware
09:57PM 46.1480 -72.7790 228° Southwest 435 501 36,000  Level FlightAware
09:58PM 46.0950 -72.8660 229° Southwest 437 503 36,000  Level FlightAware
09:58PM 46.0410 -72.9540 229° Southwest 437 503 36,000  Level FlightAware
09:59PM 45.9810 -73.0490 228° Southwest 437 503 36,000  Level FlightAware
09:59PM 45.9690 -73.0670 226° Southwest 437 503 36,000  Level FlightAware
10:01PM 45.7860 -73.3630 229° Southwest 444 511 36,000  Level FlightAware
10:02PM 45.7290 -73.4550 228° Southwest 446 513 36,000  Level FlightAware
10:03PM 45.6740 -73.5430 228° Southwest 446 513 36,000  Level FlightAware
10:04PM 45.6130 -73.6400 228° Southwest 448 516 36,000  Level FlightAware
10:04PM 45.5550 -73.7300 227° Southwest 448 516 36,000  Level FlightAware
10:05PM 45.4940 -73.8280 228° Southwest 447 514 36,000  Level FlightAware
10:06PM 45.4380 -73.9140 227° Southwest 448 516 36,000  Level FlightAware
10:06PM 45.3780 -74.0090 228° Southwest 447 514 36,000  Level FlightAware
10:07PM 45.3170 -74.1050 228° Southwest 448 516 36,000  Level FlightAware
10:08PM 45.2620 -74.1900 227° Southwest 449 517 36,000  Level FlightAware
10:09PM 45.2000 -74.2850 227° Southwest 450 518 36,000  Level FlightAware
10:09PM 45.1430 -74.3730 227° Southwest 452 520 36,000  Level FlightAware
10:10PM 45.0880 -74.4580 228° Southwest 455 524 36,000  Level FlightAware
10:10PM 45.0350 -74.5390 227° Southwest 455 524 36,000  Level FlightAware
10:13PM 44.8370 -74.8350 227° Southwest 460 529 36,000  Level FlightAware
10:14PM 44.7550 -74.9510 225° Southwest 458 527 36,000 -120 Level FlightAware
10:14PM 44.6950 -75.0350 225° Southwest 458 527 35,900  Descending FlightAware
10:15PM 44.6270 -75.1310 225° Southwest 458 527 36,000 60 Climbing FlightAware
10:16PM 44.5680 -75.2140 225° Southwest 458 527 36,000  Level FlightAware
10:17PM 44.5010 -75.3090 225° Southwest 460 529 36,000  Level FlightAware
10:17PM 44.4410 -75.3920 225° Southwest 456 525 36,000  Level FlightAware
10:18PM 44.3880 -75.4650 225° Southwest 456 525 36,000  Level FlightAware
10:19PM 44.3220 -75.5570 225° Southwest 461 531 36,000  Level FlightAware
10:19PM 44.2640 -75.6370 225° Southwest 462 532 36,000  Level FlightAware
10:20PM 44.2010 -75.7250 225° Southwest 463 533 36,000  Level FlightAware
10:21PM 44.1400 -75.8090 225° Southwest 462 532 36,000  Level FlightAware
10:21PM 44.0800 -75.8910 224° Southwest 463 533 36,000  Level FlightAware
10:22PM 44.0230 -75.9690 225° Southwest 463 533 36,000  Level FlightAware
10:23PM 43.9570 -76.0600 225° Southwest 459 528 36,000  Level FlightAware
10:23PM 43.9010 -76.1590 232° Southwest 455 524 36,000  Level FlightAware
10:24PM 43.8480 -76.2550 233° Southwest 454 522 36,000 -120 Level FlightAware
10:25PM 43.7960 -76.3490 233° Southwest 453 521 35,900  Descending FlightAware
10:25PM 43.7460 -76.4400 233° Southwest 454 522 36,000 60 Climbing FlightAware
10:26PM 43.6960 -76.5290 232° Southwest 459 528 36,000  Level FlightAware
10:27PM 43.6450 -76.6200 232° Southwest 464 534 36,000  Level FlightAware
10:27PM 43.5910 -76.7180 233° Southwest 468 539 36,000  Level FlightAware
10:28PM 43.5390 -76.8110 232° Southwest 469 540 36,000  Level FlightAware
10:29PM 43.4860 -76.9050 232° Southwest 469 540 36,000  Level FlightAware
10:29PM 43.4250 -77.0140 232° Southwest 470 541 36,000  Level FlightAware
10:30PM 43.3720 -77.1060 232° Southwest 469 540 36,000  Level FlightAware
10:31PM 43.3190 -77.1990 232° Southwest 470 541 36,000  Level FlightAware
10:31PM 43.2610 -77.3020 232° Southwest 469 540 36,000  Level FlightAware
10:32PM 43.2120 -77.3860 231° Southwest 470 541 36,000  Level FlightAware
10:33PM 43.1580 -77.4810 232° Southwest 470 541 36,000  Level FlightAware
10:33PM 43.0980 -77.5860 232° Southwest 469 540 36,000  Level FlightAware
10:34PM 43.0500 -77.6680 231° Southwest 469 540 36,000  Level FlightAware
10:35PM 42.9960 -77.7620 232° Southwest 470 541 36,000  Level FlightAware
10:35PM 42.9430 -77.8540 232° Southwest 469 540 36,000  Level FlightAware
10:36PM 42.8810 -77.9600 231° Southwest 470 541 36,000  Level FlightAware
10:37PM 42.8270 -78.0520 231° Southwest 470 541 36,000  Level FlightAware
10:38PM 42.7670 -78.1540 231° Southwest 469 540 36,000  Level FlightAware
10:38PM 42.7130 -78.2460 231° Southwest 470 541 36,000  Level FlightAware
10:39PM 42.6510 -78.3510 231° Southwest 470 541 36,000  Level FlightAware
10:40PM 42.5990 -78.4390 231° Southwest 470 541 36,000  Level FlightAware
10:40PM 42.5360 -78.5450 231° Southwest 469 540 36,000  Level FlightAware
10:41PM 42.4820 -78.6360 231° Southwest 467 537 36,000  Level FlightAware
10:42PM 42.4200 -78.7390 231° Southwest 466 536 36,000  Level FlightAware
10:42PM 42.3660 -78.8280 231° Southwest 467 537 36,000  Level FlightAware
10:43PM 42.3180 -78.9080 231° Southwest 465 535 36,000  Level FlightAware
10:44PM 42.2650 -78.9960 231° Southwest 464 534 36,000  Level FlightAware
10:44PM 42.2050 -79.1010 232° Southwest 462 532 36,000  Level FlightAware
10:45PM 42.1610 -79.1810 233° Southwest 461 531 36,000  Level FlightAware
10:46PM 42.1100 -79.2730 233° Southwest 461 531 36,000  Level FlightAware
10:46PM 42.0520 -79.3760 233° Southwest 462 532 36,000  Level FlightAware
10:47PM 42.0000 -79.4670 232° Southwest 463 533 36,000  Level FlightAware
10:48PM 41.9490 -79.5580 233° Southwest 465 535 36,000 60 Level FlightAware
10:49PM 41.8920 -79.6590 233° Southwest 468 539 36,100 60 Climbing FlightAware
10:49PM 41.8380 -79.7540 233° Southwest 471 542 36,100 -120 Level FlightAware
10:50PM 41.7900 -79.8400 233° Southwest 471 542 36,000 -120 Descending FlightAware
10:50PM 41.7380 -79.9300 232° Southwest 471 542 36,000  Level FlightAware
10:51PM 41.6780 -80.0350 233° Southwest 471 542 36,000  Level FlightAware
10:52PM 41.6350 -80.1110 233° Southwest 472 543 36,000  Level FlightAware
10:53PM 41.5720 -80.2190 232° Southwest 472 543 36,000  Level FlightAware
10:53PM 41.5120 -80.3230 232° Southwest 471 542 36,000  Level FlightAware
10:54PM 41.4520 -80.4280 233° Southwest 470 541 36,000  Level FlightAware
10:55PM 41.3940 -80.5260 232° Southwest 470 541 36,000  Level FlightAware
10:55PM 41.3500 -80.6020 232° Southwest 470 541 36,000 -120 Level FlightAware
10:56PM 41.2910 -80.7030 232° Southwest 469 540 35,900  Descending FlightAware
10:57PM 41.2380 -80.7940 232° Southwest 470 541 36,000 60 Climbing FlightAware
10:57PM 41.1900 -80.8740 231° Southwest 470 541 36,000  Level FlightAware
10:58PM 41.1310 -80.9740 232° Southwest 472 543 36,000  Level FlightAware
10:59PM 41.0760 -81.0670 232° Southwest 472 543 36,000  Level FlightAware
10:59PM 41.0170 -81.1670 232° Southwest 472 543 36,000 60 Level FlightAware
11:00PM 40.9650 -81.2610 234° Southwest 472 543 36,100  Climbing FlightAware
11:01PM 40.9110 -81.3630 235° Southwest 471 542 36,000 -120 Descending FlightAware
11:01PM 40.8610 -81.4580 235° Southwest 471 542 36,000  Level FlightAware
11:02PM 40.8150 -81.5430 234° Southwest 469 540 36,000  Level FlightAware
11:03PM 40.7650 -81.6350 234° Southwest 469 540 36,000 -120 Level FlightAware
11:03PM 40.7070 -81.7410 234° Southwest 467 537 35,900  Descending FlightAware
11:04PM 40.6690 -81.8120 235° Southwest 467 537 36,000 60 Climbing FlightAware
11:05PM 40.6110 -81.9170 234° Southwest 469 540 36,000  Level FlightAware
11:05PM 40.5620 -82.0060 234° Southwest 469 540 36,000  Level FlightAware
11:06PM 40.5060 -82.1070 234° Southwest 470 541 36,000  Level FlightAware
11:07PM 40.4560 -82.1990 234° Southwest 469 540 36,000  Level FlightAware
11:08PM 40.3980 -82.3040 234° Southwest 469 540 36,000  Level FlightAware
11:08PM 40.3470 -82.3960 234° Southwest 469 540 36,000  Level FlightAware
11:09PM 40.2980 -82.4830 234° Southwest 467 537 36,000  Level FlightAware
11:10PM 40.2450 -82.5790 234° Southwest 466 536 36,000  Level FlightAware
11:10PM 40.1960 -82.6660 234° Southwest 465 535 36,000  Level FlightAware
11:13PM 40.0220 -82.9790 234° Southwest 460 529 36,000  Level FlightAware
11:14PM 39.9280 -83.1420 233° Southwest 458 527 36,000  Level FlightAware
11:15PM 39.8690 -83.2430 233° Southwest 460 529 36,000  Level FlightAware
11:15PM 39.8130 -83.3410 233° Southwest 462 532 36,000 -480 Level FlightAware
11:16PM 39.7620 -83.4310 234° Southwest 464 534 35,400 -1,740 Descending FlightAware
11:17PM 39.7070 -83.5280 234° Southwest 469 540 33,600 -2,880 Descending FlightAware
11:17PM 39.6540 -83.6190 233° Southwest 479 551 31,400 -2,700 Descending FlightAware
11:18PM 39.6000 -83.7130 233° Southwest 474 545 30,000 -1,260 Descending FlightAware
11:19PM 39.5410 -83.8120 232° Southwest 477 549 29,700 -660 Descending FlightAware
11:19PM 39.4890 -83.9030 234° Southwest 467 537 29,100 -960 Descending FlightAware
11:20PM 39.4340 -83.9970 233° Southwest 464 534 28,400 -1,020 Descending FlightAware
11:21PM 39.3810 -84.0880 233° Southwest 461 531 27,700 -1,020 Descending FlightAware
11:22PM 39.3240 -84.1850 233° Southwest 456 525 27,000 -1,140 Descending FlightAware
11:22PM 39.2730 -84.2700 232° Southwest 449 517 26,100 -1,020 Descending FlightAware
11:23PM 39.2060 -84.3590 226° Southwest 446 513 25,500 -420 Descending FlightAware
11:24PM 39.1460 -84.4360 225° Southwest 446 513 25,500  Level FlightAware
11:24PM 39.1010 -84.4930 225° Southwest 446 513 25,500 -2,580 Level FlightAware
11:25PM 39.0100 -84.6220 228° Southwest 427 491 21,600 -3,300 Descending FlightAware
11:26PM 38.9510 -84.6980 225° Southwest 418 481 20,000 -960 Descending FlightAware
11:27PM 38.8810 -84.7880 225° Southwest 418 481 20,000  Level FlightAware
11:28PM 38.8250 -84.8590 225° Southwest 418 481 20,000 -2,460 Level FlightAware
11:30PM 38.6290 -85.0800 221° Southwest 357 411 12,200 -2,640 Descending FlightAware
11:31PM 38.5890 -85.1200 218° Southwest 357 411 12,200 -300 Level FlightAware
11:32PM 38.5260 -85.1770 215° Southwest 292 336 11,800 -300 Descending FlightAware
11:32PM 38.4880 -85.2130 217° Southwest 293 337 11,800  Level FlightAware
11:33PM 38.4400 -85.2590 217° Southwest 294 338 11,800 -300 Level FlightAware
11:34PM 38.3850 -85.3110 217° Southwest 291 335 11,400 -900 Descending FlightAware
11:34PM 38.3460 -85.3480 217° Southwest 287 330 10,500 -1,620 Descending FlightAware
11:35PM 38.3160 -85.3770 217° Southwest 288 331 9,700 -1,500 Descending FlightAware
11:35PM 38.2860 -85.4050 216° Southwest 285 328 9,100 -1,380 Descending FlightAware
11:36PM 38.2570 -85.4330 217° Southwest 282 325 8,400 -1,620 Descending FlightAware
11:36PM 38.2330 -85.4700 230° Southwest 284 327 7,600 -1,560 Descending FlightAware
11:37PM 38.2250 -85.5140 257° West 279 321 7,000 -1,440 Descending FlightAware
11:37PM 38.2150 -85.5580 254° West 277 319 6,300 -1,500 Descending FlightAware
11:38PM 38.1990 -85.5980 243° Southwest 274 315 5,600 -1,500 Descending FlightAware
11:38PM 38.1810 -85.6100 208° Southwest 272 313 5,200 -1,440 Descending FlightAware
11:38PM 38.1700 -85.6120 188° South 271 312 5,000 -1,380 Descending FlightAware
11:39PM 38.1330 -85.6010 167° South 268 308 4,300 -1,260 Descending FlightAware
11:39PM 38.1050 -85.5920 166° South 261 300 3,900 -540 Descending FlightAware
11:39PM 38.0760 -85.5840 168° South 232 267 3,900  Level FlightAware
11:40PM 38.0490 -85.5760 167° South 202 232 3,900  Level FlightAware
11:40PM 38.0230 -85.5670 165° South 203 234 3,900  Level FlightAware
11:41PM 38.0080 -85.5630 168° South 203 234 3,900  Level FlightAware
11:41PM 37.9900 -85.5570 165° South 203 234 3,900 -660 Level FlightAware
11:41PM 37.9650 -85.5500 168° South 201 231 3,400 -1,140 Descending FlightAware
11:42PM 37.9480 -85.5630 211° Southwest 202 232 2,900 -900 Descending FlightAware
11:42PM 37.9450 -85.5760 254° West 204 235 2,900  Level FlightAware
11:42PM 37.9510 -85.5970 290° West 207 238 2,900  Level FlightAware
11:43PM 37.9610 -85.6100 314° West 207 238 2,900  Level FlightAware
11:43PM 37.9750 -85.6260 318° Northwest 207 238 2,900  Level FlightAware
11:43PM 37.9920 -85.6460 317° Northwest 195 224 2,900 -240 Level FlightAware
11:44PM 38.0120 -85.6690 318° Northwest 194 223 2,700 -300 Descending FlightAware
11:44PM 38.0250 -85.6750 340° North 185 213 2,700 -300 Level FlightAware
11:45PM 38.0480 -85.6840 343° North 178 205 2,500 -480 Descending FlightAware
11:45PM 38.0660 -85.6900 345° North 172 198 2,300 -780 Descending FlightAware
11:46PM 38.0930 -85.6990 345° North 170 196 1,800 -900 Descending FlightAware
11:46PM 38.1140 -85.7060 345° North 166 191 1,400 -900 Descending FlightAware
11:47PM 38.1350 -85.7130 345° North 169 194 1,000 -960 Descending FlightAware
11:47PM 38.1540 -85.7200 344° North 164 189 600 -960 Descending FlightAware
11:48PM 38.1810 -85.7290 345° North 70 81 -900 Descending FlightAware
11:48PM 38.1860 -85.7320 335° Northwest 35 40  Level FlightAware
11:49PM 38.1830 -85.7330 195° South 28 32  Level FlightAware
11:49PM 38.1810 -85.7360 230° Southwest 32 37  Level FlightAware
11:50PM 38.1770 -85.7330 149° Southeast 31 36  Level FlightAware
11:51PM 38.1790 -85.7390 293° West 29 33  Level FlightAware
11:51PM 38.1800 -85.7440 284° West 16 18  Level FlightAware
11:52PM 38.1780 -85.7430 159° South 22 25  Level FlightAware
11:52PM 38.1750 -85.7420 165° South 26 30  Level FlightAware
11:53PM 38.1710 -85.7410 169° South 26 30  Level FlightAware
11:53PM 38.1690 -85.7400 159° South 25 29  Level FlightAware
11:53PM 38.1670 -85.7400 180° South 25 29  Level FlightAware